Time;durP1;ratioP1;P1;durP2;ratioP2;P2;SDS_P1;SDS_P2;PMS_P1;PMS_P2;Temp;Humidity;BMP_temperature;BMP_pressure;BME280_temperature;BME280_humidity;BME280_pressure;Samples;Min_cycle;Max_cycle;Signal;HPM_P1;HPM_P2
2023/04/19 00:01:44;;;;;;;19.80;2.63;;;19.80;99.90;;;;;;5068432;28;20197;-74
2023/04/19 00:04:10;;;;;;;14.17;3.43;;;19.80;99.90;;;;;;5081135;28;20277;-74
2023/04/19 00:06:36;;;;;;;16.23;3.07;;;19.70;99.90;;;;;;5087384;28;20560;-74
2023/04/19 00:09:04;;;;;;;19.27;3.03;;;19.80;99.90;;;;;;5100084;28;20254;-74
2023/04/19 00:11:30;;;;;;;9.20;2.40;;;19.80;99.90;;;;;;5092031;28;20295;-74
2023/04/19 00:13:56;;;;;;;17.43;3.00;;;19.80;99.90;;;;;;5084131;28;20194;-74
2023/04/19 00:16:22;;;;;;;15.83;2.67;;;19.80;99.90;;;;;;5070687;28;20262;-74
2023/04/19 00:18:49;;;;;;;16.70;2.77;;;19.70;99.90;;;;;;5114295;27;20571;-74
2023/04/19 00:21:15;;;;;;;17.40;3.03;;;19.60;99.90;;;;;;5093635;27;20209;-74
2023/04/19 00:23:41;;;;;;;14.80;2.80;;;19.60;99.90;;;;;;5102482;28;20525;-74
2023/04/19 00:26:10;;;;;;;16.63;3.47;;;19.60;99.90;;;;;;5087135;28;20185;-74
2023/04/19 00:28:36;;;;;;;14.73;3.47;;;19.60;99.90;;;;;;5091778;28;20659;-74
2023/04/19 00:31:03;;;;;;;18.53;3.07;;;19.70;99.90;;;;;;5089960;28;20296;-74
2023/04/19 00:33:29;;;;;;;19.10;2.90;;;19.70;99.90;;;;;;5099046;27;20611;-74
2023/04/19 00:35:55;;;;;;;17.67;3.23;;;19.90;99.90;;;;;;5091141;28;20185;-74
2023/04/19 00:38:21;;;;;;;15.93;3.17;;;20.00;99.90;;;;;;5107363;27;20667;-74
2023/04/19 00:40:48;;;;;;;15.77;3.27;;;19.90;99.90;;;;;;5109477;27;20216;-74
2023/04/19 00:43:22;;;;;;;19.30;3.33;;;20.00;99.90;;;;;;5107435;27;20182;-74
2023/04/19 00:45:49;;;;;;;16.83;3.37;;;20.00;99.90;;;;;;5109015;27;20532;-75
2023/04/19 00:48:16;;;;;;;16.33;4.10;;;20.00;99.90;;;;;;5101397;27;20270;-74
2023/04/19 00:50:44;;;;;;;16.80;3.23;;;20.20;99.90;;;;;;5107376;28;20192;-74
2023/04/19 00:53:11;;;;;;;21.87;3.43;;;20.30;99.90;;;;;;5102371;27;20193;-74
2023/04/19 00:55:39;;;;;;;23.23;4.60;;;20.30;99.90;;;;;;5101006;28;20209;-74
2023/04/19 00:58:07;;;;;;;16.77;3.63;;;20.30;99.90;;;;;;5082923;27;20194;-74
2023/04/19 01:00:34;;;;;;;13.83;3.87;;;20.10;99.90;;;;;;5091970;27;20205;-74
2023/04/19 01:03:00;;;;;;;17.80;3.80;;;20.00;99.90;;;;;;5091119;28;20181;-74
2023/04/19 01:05:27;;;;;;;19.97;4.50;;;19.90;99.90;;;;;;5086929;28;20285;-75
2023/04/19 01:07:53;;;;;;;20.90;3.57;;;19.80;99.90;;;;;;5091404;27;20203;-74
2023/04/19 01:10:19;;;;;;;13.87;3.40;;;19.70;99.90;;;;;;5105519;27;20626;-74
2023/04/19 01:12:46;;;;;;;12.20;3.13;;;19.60;99.90;;;;;;5111448;27;20598;-74
2023/04/19 01:15:12;;;;;;;14.67;3.10;;;19.40;99.90;;;;;;5101664;28;20696;-74
2023/04/19 01:17:38;;;;;;;16.37;3.37;;;19.30;99.90;;;;;;5102031;27;20247;-74
2023/04/19 01:20:06;;;;;;;14.80;3.23;;;19.10;99.90;;;;;;5108721;27;20210;-74
2023/04/19 01:22:36;;;;;;;17.13;3.47;;;18.90;99.90;;;;;;5082639;27;20651;-75
2023/04/19 01:25:03;;;;;;;9.87;3.10;;;18.70;99.90;;;;;;5090143;28;20220;-74
2023/04/19 01:27:30;;;;;;;16.73;3.43;;;18.40;99.90;;;;;;5089608;28;20186;-74
2023/04/19 01:29:56;;;;;;;9.17;2.50;;;18.20;99.90;;;;;;5107551;27;20305;-74
2023/04/19 01:32:27;;;;;;;14.80;3.37;;;18.00;99.90;;;;;;5092928;27;20182;-75
2023/04/19 01:34:54;;;;;;;13.83;2.97;;;17.70;99.90;;;;;;5092021;28;20193;-74
2023/04/19 01:37:20;;;;;;;23.53;3.57;;;17.60;99.90;;;;;;5098128;28;20661;-74
2023/04/19 01:39:46;;;;;;;14.03;2.67;;;17.50;99.90;;;;;;5103685;28;20255;-74
2023/04/19 01:42:12;;;;;;;10.83;2.77;;;17.30;99.90;;;;;;5107850;27;20196;-74
2023/04/19 01:44:39;;;;;;;14.13;3.10;;;17.10;99.90;;;;;;5098058;27;20186;-74
2023/04/19 01:47:05;;;;;;;10.33;3.00;;;17.00;99.90;;;;;;5104419;27;20585;-74
2023/04/19 01:49:31;;;;;;;12.80;3.37;;;16.90;99.90;;;;;;5089140;28;20776;-74
2023/04/19 01:51:57;;;;;;;13.63;3.07;;;16.50;99.90;;;;;;5088760;28;20189;-74
2023/04/19 01:54:24;;;;;;;14.27;3.60;;;16.40;99.90;;;;;;5102187;27;21082;-74
2023/04/19 01:56:50;;;;;;;16.40;3.85;;;16.40;99.90;;;;;;5101998;27;20419;-74
2023/04/19 01:59:16;;;;;;;13.43;3.73;;;16.40;99.90;;;;;;5098454;28;20304;-74
2023/04/19 02:01:42;;;;;;;12.97;3.83;;;16.30;99.90;;;;;;5082978;27;20185;-74
2023/04/19 02:04:09;;;;;;;23.63;3.80;;;16.30;99.90;;;;;;5098208;28;20186;-74
2023/04/19 02:06:35;;;;;;;19.10;3.37;;;16.10;99.90;;;;;;5073986;27;20178;-74
2023/04/19 02:09:01;;;;;;;24.33;3.30;;;16.10;99.90;;;;;;5070787;27;20281;-74
2023/04/19 02:11:28;;;;;;;19.63;4.07;;;16.20;99.90;;;;;;5078677;28;20264;-73
2023/04/19 02:13:54;;;;;;;13.45;3.00;;;16.10;99.90;;;;;;5092552;28;20910;-73
2023/04/19 02:16:20;;;;;;;18.95;3.33;;;16.00;99.90;;;;;;5095078;28;20411;-74
2023/04/19 02:18:47;;;;;;;18.25;3.55;;;16.00;99.90;;;;;;5098351;27;20498;-74
2023/04/19 02:21:13;;;;;;;15.00;3.75;;;15.90;99.90;;;;;;5102882;27;20410;-74
2023/04/19 02:23:39;;;;;;;19.63;3.58;;;16.10;99.90;;;;;;5105730;27;20415;-74
2023/04/19 02:26:05;;;;;;;15.57;3.13;;;16.20;99.90;;;;;;5086487;28;20392;-74
2023/04/19 02:28:32;;;;;;;15.47;3.43;;;16.30;99.90;;;;;;5084304;27;20404;-74
2023/04/19 02:31:03;;;;;;;15.07;3.55;;;16.30;99.90;;;;;;5087533;28;20444;-74
2023/04/19 02:33:30;;;;;;;17.07;3.50;;;16.30;99.90;;;;;;5089225;27;20403;-74
2023/04/19 02:35:56;;;;;;;12.98;3.40;;;16.20;99.90;;;;;;5088262;28;20934;-74
2023/04/19 02:38:22;;;;;;;14.98;3.35;;;16.10;99.90;;;;;;5086336;28;20437;-74
2023/04/19 02:40:48;;;;;;;16.48;3.60;;;16.10;99.90;;;;;;5084800;28;20443;-73
2023/04/19 02:43:14;;;;;;;16.63;3.80;;;16.00;99.90;;;;;;5118541;27;20402;-74
2023/04/19 02:45:41;;;;;;;15.23;4.00;;;15.90;99.90;;;;;;5084362;28;20431;-74
2023/04/19 02:48:07;;;;;;;16.48;4.63;;;15.90;99.90;;;;;;5098050;28;20961;-74
2023/04/19 02:50:40;;;;;;;18.73;4.90;;;16.00;99.90;;;;;;5107297;28;20429;-74
2023/04/19 02:53:06;;;;;;;25.00;5.85;;;16.30;99.90;;;;;;5076080;28;20414;-74
2023/04/19 02:55:32;;;;;;;17.70;4.82;;;16.70;99.90;;;;;;5067306;28;20769;-74
2023/04/19 02:57:58;;;;;;;16.83;4.87;;;17.10;99.90;;;;;;5080800;28;20978;-74
2023/04/19 03:00:25;;;;;;;17.33;4.68;;;17.10;99.90;;;;;;5069086;28;20490;-74
2023/04/19 03:02:51;;;;;;;19.13;5.57;;;17.10;99.90;;;;;;5100239;28;20407;-74
2023/04/19 03:05:17;;;;;;;17.52;5.22;;;17.20;99.90;;;;;;5079176;28;20406;-74
2023/04/19 03:07:44;;;;;;;17.13;4.87;;;17.40;99.90;;;;;;5099591;28;20465;-74
2023/04/19 03:10:10;;;;;;;21.52;5.88;;;17.40;99.90;;;;;;5095960;28;20502;-74
2023/04/19 03:12:36;;;;;;;18.92;5.72;;;17.60;99.90;;;;;;5088837;28;20544;-74
2023/04/19 03:15:03;;;;;;;16.17;5.70;;;17.70;99.90;;;;;;5094718;28;20397;-74
2023/04/19 03:17:29;;;;;;;21.20;5.68;;;17.70;99.90;;;;;;5117234;27;20410;-74
2023/04/19 03:19:55;;;;;;;19.33;5.33;;;17.60;99.90;;;;;;5081908;28;22202;-74
2023/04/19 03:22:22;;;;;;;16.60;5.10;;;17.50;99.90;;;;;;5095195;28;20182;-74
2023/04/19 03:24:48;;;;;;;17.33;4.83;;;17.50;99.90;;;;;;5102112;27;20182;-73
2023/04/19 03:27:14;;;;;;;16.47;5.17;;;17.40;99.90;;;;;;5085723;28;20227;-74
2023/04/19 03:29:40;;;;;;;26.47;6.20;;;17.50;99.90;;;;;;5113976;27;20190;-74
2023/04/19 03:32:08;;;;;;;19.37;5.33;;;17.70;99.90;;;;;;5092038;28;20616;-74
2023/04/19 03:34:34;;;;;;;18.20;5.00;;;17.80;99.90;;;;;;5088220;28;20197;-74
2023/04/19 03:37:00;;;;;;;21.27;5.75;;;18.00;99.90;;;;;;5086314;28;20783;-74
2023/04/19 03:39:27;;;;;;;22.10;6.38;;;18.10;99.90;;;;;;5095176;28;20518;-74
2023/04/19 03:41:53;;;;;;;22.97;6.17;;;18.10;99.90;;;;;;5085300;28;20396;-73
2023/04/19 03:44:19;;;;;;;20.57;6.03;;;18.20;99.90;;;;;;5092969;28;20409;-74
2023/04/19 03:46:47;;;;;;;20.47;5.10;;;18.20;99.90;;;;;;5104962;27;20928;-74
2023/04/19 03:49:14;;;;;;;15.40;5.40;;;18.30;99.90;;;;;;5101161;28;20587;-74
2023/04/19 03:51:40;;;;;;;14.47;4.90;;;18.20;99.90;;;;;;5085320;28;20249;-73
2023/04/19 03:54:06;;;;;;;18.87;5.47;;;18.10;99.90;;;;;;5080711;28;20711;-73
2023/04/19 03:56:32;;;;;;;19.03;5.53;;;18.00;99.90;;;;;;5093876;28;20197;-74
2023/04/19 03:58:58;;;;;;;18.07;4.97;;;18.00;99.90;;;;;;5091078;28;20255;-73
2023/04/19 04:01:26;;;;;;;18.40;5.10;;;17.80;99.90;;;;;;5100434;27;20586;-74
2023/04/19 04:03:52;;;;;;;15.70;5.23;;;17.80;99.90;;;;;;5105118;27;20292;-74
2023/04/19 04:06:18;;;;;;;17.83;5.23;;;17.80;99.90;;;;;;5098452;28;20647;-74
2023/04/19 04:08:45;;;;;;;14.43;5.17;;;17.70;99.90;;;;;;5098072;28;20193;-74
2023/04/19 04:11:11;;;;;;;16.47;4.80;;;17.60;99.90;;;;;;5095621;28;20317;-73
2023/04/19 04:13:37;;;;;;;13.67;4.77;;;17.50;99.90;;;;;;5104605;27;20187;-74
2023/04/19 04:16:04;;;;;;;19.07;4.80;;;17.60;99.90;;;;;;5104107;28;20204;-74
2023/04/19 04:18:31;;;;;;;19.83;4.80;;;17.70;99.90;;;;;;5092035;28;20284;-74
2023/04/19 04:20:57;;;;;;;20.07;4.80;;;17.70;99.90;;;;;;5078871;28;20201;-74
2023/04/19 04:23:24;;;;;;;13.50;4.93;;;17.70;99.90;;;;;;5094766;28;20224;-74
2023/04/19 04:26:01;;;;;;;13.50;4.53;;;17.60;99.90;;;;;;5088943;28;20198;-74
2023/04/19 04:28:28;;;;;;;21.13;5.07;;;17.50;99.90;;;;;;5087129;28;20189;-74
2023/04/19 04:30:59;;;;;;;14.30;4.70;;;17.50;99.90;;;;;;5089657;28;20636;-74
2023/04/19 04:33:29;;;;;;;20.77;5.13;;;17.60;99.90;;;;;;5096833;28;20196;-74
2023/04/19 04:35:57;;;;;;;13.50;4.60;;;17.60;99.90;;;;;;5104011;28;20254;-74
2023/04/19 04:38:24;;;;;;;14.40;4.83;;;17.60;99.90;;;;;;5083702;28;20182;-74
2023/04/19 04:40:53;;;;;;;21.60;4.97;;;17.70;99.90;;;;;;5086631;28;20217;-74
2023/04/19 04:43:21;;;;;;;15.30;4.60;;;17.70;99.90;;;;;;5101072;28;20266;-74
2023/04/19 04:45:48;;;;;;;12.60;4.67;;;17.80;99.90;;;;;;5088023;28;20951;-74
2023/04/19 04:48:14;;;;;;;12.97;4.40;;;17.90;99.90;;;;;;5083763;28;20513;-73
2023/04/19 04:50:40;;;;;;;13.77;4.50;;;18.00;99.90;;;;;;5101020;28;20201;-74
2023/04/19 04:53:07;;;;;;;10.60;4.63;;;18.10;99.90;;;;;;5103776;28;20196;-74
2023/04/19 04:55:35;;;;;;;11.93;4.30;;;18.30;99.90;;;;;;5104151;28;20692;-74
2023/04/19 04:58:01;;;;;;;8.30;4.00;;;18.30;99.90;;;;;;5090496;28;20213;-74
2023/04/19 05:00:28;;;;;;;11.90;4.13;;;18.40;99.90;;;;;;5103602;28;20201;-74
2023/04/19 05:02:54;;;;;;;10.70;4.63;;;18.40;99.90;;;;;;5078345;28;20327;-74
2023/04/19 05:05:20;;;;;;;12.73;4.70;;;18.50;99.90;;;;;;5111794;27;20709;-74
2023/04/19 05:07:46;;;;;;;18.10;3.97;;;18.50;99.90;;;;;;5092136;28;20189;-74
2023/04/19 05:10:13;;;;;;;18.83;4.57;;;18.60;99.90;;;;;;5089382;28;20190;-74
2023/04/19 05:12:41;;;;;;;13.40;4.20;;;18.60;99.90;;;;;;5089459;28;20232;-74
2023/04/19 05:15:08;;;;;;;15.57;4.07;;;18.70;99.90;;;;;;5090994;27;20199;-74
2023/04/19 05:17:34;;;;;;;10.93;4.47;;;18.70;99.90;;;;;;5109445;27;20195;-74
2023/04/19 05:20:01;;;;;;;15.07;5.13;;;18.70;99.90;;;;;;5089360;28;20560;-74
2023/04/19 05:22:27;;;;;;;16.97;4.47;;;18.80;99.90;;;;;;5088383;28;20183;-74
2023/04/19 05:24:54;;;;;;;13.93;4.10;;;18.80;99.90;;;;;;5086013;28;20196;-74
2023/04/19 05:27:20;;;;;;;10.97;5.00;;;18.80;99.90;;;;;;5084429;28;20198;-74
2023/04/19 05:29:46;;;;;;;13.80;4.73;;;18.80;99.90;;;;;;5099843;28;20268;-73
2023/04/19 05:32:12;;;;;;;19.30;4.33;;;18.90;99.90;;;;;;5085088;28;20727;-74
2023/04/19 05:34:38;;;;;;;14.30;5.03;;;18.90;99.90;;;;;;5089983;28;20185;-74
2023/04/19 05:37:05;;;;;;;18.07;4.07;;;18.90;99.90;;;;;;5098600;28;20197;-74
2023/04/19 05:39:31;;;;;;;15.70;4.60;;;19.00;99.90;;;;;;5101195;28;20218;-74
2023/04/19 05:41:57;;;;;;;16.37;4.63;;;19.00;99.90;;;;;;5087321;28;20297;-74
2023/04/19 05:44:23;;;;;;;17.17;4.40;;;19.10;99.90;;;;;;5101432;28;20193;-74
2023/04/19 05:46:49;;;;;;;22.77;4.70;;;19.20;99.90;;;;;;5105852;28;20213;-73
2023/04/19 05:49:17;;;;;;;19.63;4.43;;;19.20;99.90;;;;;;5070704;28;20194;-74
2023/04/19 05:51:43;;;;;;;22.77;4.73;;;19.10;99.90;;;;;;5105294;27;20205;-74
2023/04/19 05:54:11;;;;;;;14.83;4.27;;;19.10;99.90;;;;;;5083421;28;20262;-74
2023/04/19 05:56:38;;;;;;;20.13;4.23;;;19.10;99.90;;;;;;5083425;28;20201;-74
2023/04/19 05:59:05;;;;;;;18.50;4.60;;;19.10;99.90;;;;;;5078301;28;20198;-74
2023/04/19 06:01:31;;;;;;;17.87;4.50;;;19.00;99.90;;;;;;5107616;27;20200;-74
2023/04/19 06:03:57;;;;;;;19.07;4.57;;;19.00;99.90;;;;;;5093319;28;20229;-74
2023/04/19 06:06:24;;;;;;;13.53;4.10;;;19.10;99.90;;;;;;5097846;28;20222;-74
2023/04/19 06:08:50;;;;;;;18.43;4.10;;;19.10;99.90;;;;;;5081216;28;20194;-74
2023/04/19 06:11:16;;;;;;;16.87;3.80;;;19.20;99.90;;;;;;5105819;27;20191;-74
2023/04/19 06:13:43;;;;;;;17.40;4.70;;;19.20;99.90;;;;;;5085269;28;20239;-74
2023/04/19 06:16:10;;;;;;;11.27;3.70;;;19.20;99.90;;;;;;5088787;28;20188;-74
2023/04/19 06:18:36;;;;;;;21.27;4.37;;;19.20;99.90;;;;;;5093951;28;20265;-74
2023/04/19 06:21:02;;;;;;;17.53;4.10;;;19.20;99.90;;;;;;5096831;28;20848;-74
2023/04/19 06:23:29;;;;;;;15.17;3.83;;;19.20;99.90;;;;;;5100726;28;20213;-74
2023/04/19 06:25:55;;;;;;;20.27;4.60;;;19.30;99.90;;;;;;5090210;28;20292;-74
2023/04/19 06:28:21;;;;;;;16.70;4.17;;;19.30;99.90;;;;;;5088291;28;20189;-74
2023/04/19 06:30:47;;;;;;;11.93;3.83;;;19.40;99.90;;;;;;5086780;28;20192;-74
2023/04/19 06:33:13;;;;;;;13.10;4.33;;;19.40;99.90;;;;;;5079446;28;20582;-74
2023/04/19 06:35:40;;;;;;;21.03;4.33;;;19.50;99.90;;;;;;5118807;27;20212;-74
2023/04/19 06:38:06;;;;;;;15.90;4.00;;;19.50;99.90;;;;;;5091633;28;20194;-74
2023/04/19 06:40:33;;;;;;;17.90;4.97;;;19.60;99.90;;;;;;5106936;27;20236;-74
2023/04/19 06:42:59;;;;;;;14.33;4.33;;;19.60;99.90;;;;;;5096668;28;20193;-74
2023/04/19 06:45:25;;;;;;;14.60;4.07;;;19.60;99.90;;;;;;5099200;28;20205;-74
2023/04/19 06:47:51;;;;;;;16.73;4.00;;;19.60;99.90;;;;;;5106177;28;20189;-74
2023/04/19 06:50:18;;;;;;;19.70;4.23;;;19.60;99.90;;;;;;5101967;28;20308;-74
2023/04/19 06:52:44;;;;;;;13.20;4.37;;;19.70;99.90;;;;;;5101795;28;20272;-74
2023/04/19 06:55:11;;;;;;;14.40;4.70;;;19.70;99.90;;;;;;5103886;28;20232;-74
2023/04/19 06:57:42;;;;;;;18.83;4.90;;;19.80;99.90;;;;;;5063196;28;20273;-74
2023/04/19 07:00:10;;;;;;;15.97;4.13;;;19.90;99.90;;;;;;5097135;28;20208;-74
2023/04/19 07:02:37;;;;;;;9.67;3.83;;;19.90;99.90;;;;;;5102799;27;20189;-74
2023/04/19 07:05:03;;;;;;;14.87;4.57;;;19.90;99.90;;;;;;5083109;28;20267;-74
2023/04/19 07:07:30;;;;;;;15.73;4.73;;;20.00;99.90;;;;;;5104815;27;20189;-74
2023/04/19 07:09:56;;;;;;;15.53;4.57;;;19.90;99.90;;;;;;5102707;27;20198;-74
2023/04/19 07:12:22;;;;;;;21.50;5.23;;;19.90;99.90;;;;;;5111316;27;20221;-74
2023/04/19 07:14:49;;;;;;;13.97;5.20;;;20.00;99.90;;;;;;5080175;28;20193;-74
2023/04/19 07:17:17;;;;;;;16.97;5.50;;;20.00;99.90;;;;;;5080914;28;20231;-74
2023/04/19 07:19:47;;;;;;;15.20;5.97;;;20.00;99.90;;;;;;5088992;28;20295;-74
2023/04/19 07:22:14;;;;;;;14.87;5.63;;;20.00;99.90;;;;;;5089424;28;20544;-74
2023/04/19 07:24:42;;;;;;;14.23;5.73;;;20.00;99.90;;;;;;5096862;28;20189;-74
2023/04/19 07:27:08;;;;;;;20.27;6.87;;;20.00;99.90;;;;;;5093915;28;20560;-74
2023/04/19 07:29:35;;;;;;;17.27;6.83;;;20.00;99.90;;;;;;5078073;28;20186;-74
2023/04/19 07:32:02;;;;;;;17.87;5.53;;;20.00;99.90;;;;;;5081476;27;20193;-74
2023/04/19 07:34:29;;;;;;;19.00;6.03;;;20.10;99.90;;;;;;5091814;28;20190;-74
2023/04/19 07:36:55;;;;;;;16.33;5.60;;;20.10;99.90;;;;;;5088322;27;20193;-74
2023/04/19 07:39:21;;;;;;;12.20;5.50;;;20.10;99.90;;;;;;5083553;28;20210;-74
2023/04/19 07:41:48;;;;;;;15.33;5.87;;;20.10;99.90;;;;;;5079599;28;20509;-74
2023/04/19 07:44:17;;;;;;;13.03;5.70;;;20.20;99.90;;;;;;5107217;27;20217;-74
2023/04/19 07:46:44;;;;;;;12.37;5.57;;;20.20;99.90;;;;;;5102611;28;20265;-74
2023/04/19 07:49:10;;;;;;;14.97;5.60;;;20.30;99.90;;;;;;5098858;27;20207;-74
2023/04/19 07:51:36;;;;;;;14.80;5.50;;;20.40;99.90;;;;;;5089540;28;20182;-74
2023/04/19 07:54:02;;;;;;;14.47;5.23;;;20.40;99.90;;;;;;5082124;28;20378;-74
2023/04/19 07:56:29;;;;;;;13.67;4.63;;;20.40;99.90;;;;;;5108595;27;20191;-74
2023/04/19 07:58:55;;;;;;;13.63;4.47;;;20.40;99.90;;;;;;5077881;28;20185;-74
2023/04/19 08:01:21;;;;;;;14.17;4.73;;;20.40;99.90;;;;;;5099708;28;20666;-74
2023/04/19 08:03:47;;;;;;;14.83;4.50;;;20.40;99.90;;;;;;5080166;28;20189;-77
2023/04/19 08:06:14;;;;;;;12.40;4.77;;;20.30;99.90;;;;;;5088290;28;20197;-76
2023/04/19 08:08:40;;;;;;;16.90;5.67;;;20.20;99.90;;;;;;5085995;28;20193;-76
2023/04/19 08:11:06;;;;;;;17.30;5.20;;;20.20;99.90;;;;;;5082433;28;20266;-76
2023/04/19 08:13:33;;;;;;;14.40;6.73;;;20.20;99.90;;;;;;5106005;28;20196;-76
2023/04/19 08:15:59;;;;;;;13.93;6.57;;;20.20;99.90;;;;;;5089883;28;20655;-76
2023/04/19 08:18:26;;;;;;;15.17;8.40;;;20.10;99.90;;;;;;5106500;28;20622;-76
2023/04/19 08:20:52;;;;;;;20.30;9.70;;;20.10;99.90;;;;;;5089367;28;20699;-76
2023/04/19 08:23:19;;;;;;;15.40;8.67;;;19.90;99.90;;;;;;5084534;28;20293;-76
2023/04/19 08:25:45;;;;;;;21.40;10.70;;;19.70;99.90;;;;;;5109586;28;20196;-76
2023/04/19 08:28:11;;;;;;;18.70;10.47;;;19.60;99.90;;;;;;5087500;28;20678;-76
2023/04/19 08:30:38;;;;;;;18.83;10.97;;;19.40;99.90;;;;;;5084280;28;20193;-76
2023/04/19 08:33:05;;;;;;;16.03;10.13;;;19.20;99.90;;;;;;5067515;28;20220;-76
2023/04/19 08:35:35;;;;;;;19.50;10.37;;;19.00;99.90;;;;;;5083151;28;20228;-76
2023/04/19 08:38:01;;;;;;;17.73;11.17;;;19.00;99.90;;;;;;5094124;27;20233;-76
2023/04/19 08:40:30;;;;;;;15.67;11.03;;;18.80;99.90;;;;;;5111571;27;20204;-76
2023/04/19 08:42:57;;;;;;;20.23;11.53;;;18.90;99.90;;;;;;5110037;27;20298;-76
2023/04/19 08:45:29;;;;;;;21.90;11.90;;;18.90;99.90;;;;;;5103770;28;20247;-76
2023/04/19 08:47:58;;;;;;;20.33;11.63;;;18.90;99.90;;;;;;5090175;27;20239;-76
2023/04/19 08:50:25;;;;;;;17.13;11.33;;;18.80;99.90;;;;;;5108166;27;20184;-76
2023/04/19 08:52:52;;;;;;;21.27;12.27;;;18.80;99.90;;;;;;5105789;27;20614;-76
2023/04/19 08:55:23;;;;;;;20.10;12.00;;;18.70;99.90;;;;;;5098987;27;20896;-76
2023/04/19 08:57:49;;;;;;;22.23;12.17;;;18.60;99.90;;;;;;5111680;27;20197;-76
2023/04/19 09:00:16;;;;;;;21.70;11.10;;;18.60;99.90;;;;;;5105092;27;20206;-76
2023/04/19 09:02:56;;;;;;;19.77;11.57;;;18.40;99.90;;;;;;5109459;27;20601;-75
2023/04/19 09:05:22;;;;;;;23.23;12.00;;;18.30;99.90;;;;;;5104380;28;20181;-76
2023/04/19 09:07:48;;;;;;;19.90;12.03;;;18.20;99.90;;;;;;5098958;27;20185;-76
2023/04/19 09:10:20;;;;;;;19.60;12.10;;;18.30;99.90;;;;;;5083474;28;21029;-76
2023/04/19 09:13:04;;;;;;;23.80;12.80;;;18.30;99.90;;;;;;5084935;28;20525;-76
2023/04/19 09:15:43;;;;;;;21.23;13.17;;;18.20;99.90;;;;;;5103752;28;20193;-76
2023/04/19 09:18:11;;;;;;;23.33;13.50;;;18.20;99.90;;;;;;5094358;28;20177;-76
2023/04/19 09:20:43;;;;;;;23.00;13.57;;;18.20;99.90;;;;;;5086804;28;20209;-76
2023/04/19 09:23:15;;;;;;;18.90;12.90;;;18.10;99.90;;;;;;5092836;27;20189;-76
2023/04/19 09:25:59;;;;;;;25.73;11.70;;;18.00;99.90;;;;;;5087651;28;20190;-76
2023/04/19 09:28:27;;;;;;;19.07;13.03;;;17.90;99.90;;;;;;5101874;28;20213;-76
2023/04/19 09:30:55;;;;;;;18.53;12.20;;;17.80;99.90;;;;;;5105315;28;20871;-76
2023/04/19 09:33:33;;;;;;;19.37;11.30;;;17.70;99.90;;;;;;5099411;28;20296;-76
2023/04/19 09:36:00;;;;;;;17.03;8.73;;;17.70;99.90;;;;;;5087148;28;20185;-76
2023/04/19 09:38:27;;;;;;;11.97;7.97;;;17.70;99.90;;;;;;5100014;27;20193;-75
2023/04/19 09:41:09;;;;;;;15.60;8.23;;;17.80;99.90;;;;;;5104175;27;20678;-76
2023/04/19 09:43:35;;;;;;;17.63;10.17;;;17.90;99.90;;;;;;5109950;27;20269;-76
2023/04/19 09:46:02;;;;;;;15.27;12.57;;;18.00;99.90;;;;;;5110825;27;20843;-75
2023/04/19 09:48:28;;;;;;;19.17;13.17;;;18.10;99.90;;;;;;5099893;28;20239;-76
2023/04/19 09:50:57;;;;;;;24.97;13.27;;;18.00;99.90;;;;;;5099778;27;20277;-76
2023/04/19 09:53:25;;;;;;;19.27;13.30;;;18.00;99.90;;;;;;5107210;27;20181;-76
2023/04/19 09:55:53;;;;;;;23.90;13.73;;;18.00;99.90;;;;;;5097954;27;20201;-76
2023/04/19 09:58:21;;;;;;;24.23;13.20;;;18.00;99.90;;;;;;5084629;27;20197;-76
2023/04/19 10:00:50;;;;;;;26.47;13.30;;;17.90;99.90;;;;;;5094384;27;20213;-76
2023/04/19 10:03:19;;;;;;;18.90;12.73;;;17.90;99.90;;;;;;5088242;28;20189;-76
2023/04/19 10:05:45;;;;;;;20.70;13.13;;;18.00;99.90;;;;;;5092990;27;20712;-76
2023/04/19 10:08:13;;;;;;;20.77;13.03;;;18.00;99.90;;;;;;5088338;27;20189;-76
2023/04/19 10:10:40;;;;;;;23.23;13.63;;;18.10;99.90;;;;;;5073715;27;20186;-73
2023/04/19 10:13:11;;;;;;;16.07;12.67;;;18.20;99.90;;;;;;5104013;27;20277;-72
2023/04/19 10:15:42;;;;;;;18.43;12.30;;;18.20;99.90;;;;;;5091244;27;20216;-72
2023/04/19 10:18:10;;;;;;;21.70;13.20;;;18.40;99.90;;;;;;5105372;27;20293;-72
2023/04/19 10:21:00;;;;;;;18.57;12.63;;;18.40;99.90;;;;;;5091727;27;20212;-72
2023/04/19 10:23:28;;;;;;;23.77;12.37;;;18.40;99.90;;;;;;5099390;27;20181;-72
2023/04/19 10:25:58;;;;;;;20.20;10.73;;;18.50;99.90;;;;;;5089893;28;20201;-72
2023/04/19 10:28:28;;;;;;;10.33;5.77;;;18.60;99.90;;;;;;5091065;28;20183;-72
2023/04/19 10:31:03;;;;;;;11.10;4.97;;;18.60;99.90;;;;;;5100037;28;20888;-73
2023/04/19 10:33:35;;;;;;;13.20;4.57;;;18.90;99.90;;;;;;5088759;28;20182;-72
2023/04/19 10:36:03;;;;;;;13.37;3.90;;;18.60;99.90;;;;;;5089644;28;20186;-72
2023/04/19 10:38:50;;;;;;;18.47;3.57;;;18.50;99.90;;;;;;5091711;28;20189;-72
2023/04/19 10:41:18;;;;;;;14.10;4.50;;;18.10;99.90;;;;;;5113755;27;20628;-72
2023/04/19 10:44:06;;;;;;;12.80;3.63;;;18.00;99.90;;;;;;5104840;28;20189;-72
2023/04/19 10:46:34;;;;;;;15.43;3.67;;;17.90;99.90;;;;;;5103795;28;20186;-72
2023/04/19 10:49:04;;;;;;;10.63;3.40;;;18.10;99.90;;;;;;5103962;28;20185;-72
2023/04/19 10:51:37;;;;;;;10.73;3.30;;;18.10;99.90;;;;;;5075593;27;20216;-72
2023/04/19 10:54:27;;;;;;;9.07;3.53;;;18.10;99.90;;;;;;5107731;27;20189;-72
2023/04/19 10:57:03;;;;;;;18.93;5.03;;;18.10;99.90;;;;;;5089135;28;20186;-73
2023/04/19 10:59:41;;;;;;;15.47;4.10;;;18.30;99.90;;;;;;5105081;27;20243;-73
2023/04/19 11:02:26;;;;;;;12.37;3.80;;;18.50;99.90;;;;;;5104819;28;20665;-72
2023/04/19 11:04:53;;;;;;;11.60;3.40;;;18.80;99.90;;;;;;5117398;27;20177;-72
2023/04/19 11:07:22;;;;;;;11.53;3.20;;;19.10;99.90;;;;;;5110728;27;20241;-73
2023/04/19 11:09:50;;;;;;;10.20;2.90;;;18.90;99.90;;;;;;5092224;28;20560;-73
2023/04/19 11:12:19;;;;;;;7.80;2.70;;;18.80;99.90;;;;;;5115518;27;20280;-73
2023/04/19 11:14:58;;;;;;;12.03;3.20;;;18.70;99.90;;;;;;5108182;27;20241;-73
2023/04/19 11:17:30;;;;;;;8.70;2.77;;;18.50;99.90;;;;;;5105796;28;20213;-73
2023/04/19 11:20:09;;;;;;;12.63;2.57;;;18.40;99.90;;;;;;5086757;28;20213;-73
2023/04/19 11:22:46;;;;;;;10.20;2.10;;;18.30;99.90;;;;;;5088364;28;20543;-73
2023/04/19 11:25:16;;;;;;;11.13;3.00;;;18.20;99.90;;;;;;5091407;28;20192;-73
2023/04/19 11:27:44;;;;;;;8.53;2.20;;;18.10;99.90;;;;;;5087641;27;20199;-73
2023/04/19 11:30:20;;;;;;;11.87;2.50;;;18.10;99.90;;;;;;5097078;28;20190;-73
2023/04/19 11:32:55;;;;;;;11.13;2.60;;;18.10;99.90;;;;;;5082481;28;20186;-72
2023/04/19 11:35:27;;;;;;;7.90;2.90;;;17.90;99.90;;;;;;5089275;28;20196;-73
2023/04/19 11:37:55;;;;;;;8.30;2.60;;;17.90;99.90;;;;;;5106900;27;20289;-73
2023/04/19 11:40:25;;;;;;;10.33;2.97;;;17.90;99.90;;;;;;5107197;27;20344;-73
2023/04/19 11:42:59;;;;;;;11.50;2.67;;;18.10;99.90;;;;;;5100012;27;20538;-73
2023/04/19 11:45:33;;;;;;;15.07;5.00;;;18.50;99.90;;;;;;5103958;28;20185;-73
2023/04/19 11:48:00;;;;;;;12.93;5.93;;;19.20;99.90;;;;;;5090891;27;20193;-73
2023/04/19 11:50:44;;;;;;;15.77;5.13;;;19.50;99.90;;;;;;5105743;27;20234;-73
2023/04/19 11:53:24;;;;;;;17.57;5.67;;;19.70;99.90;;;;;;5105139;28;20189;-73
2023/04/19 11:55:57;;;;;;;16.00;5.97;;;19.90;99.90;;;;;;5115277;27;20242;-73
2023/04/19 11:58:32;;;;;;;14.10;5.83;;;19.90;99.90;;;;;;5106960;27;20284;-73
2023/04/19 12:01:08;;;;;;;17.03;7.43;;;19.60;99.90;;;;;;5110706;27;20209;-73
2023/04/19 12:03:43;;;;;;;20.07;7.80;;;19.40;99.90;;;;;;5086982;28;20201;-73
2023/04/19 12:06:24;;;;;;;17.50;7.90;;;19.20;99.90;;;;;;5094277;28;20194;-73
2023/04/19 12:08:53;;;;;;;16.13;7.17;;;19.10;99.90;;;;;;5091282;28;20276;-73
2023/04/19 12:11:25;;;;;;;15.93;6.80;;;19.00;99.90;;;;;;5089509;28;20182;-73
2023/04/19 12:14:13;;;;;;;12.30;6.90;;;18.70;99.90;;;;;;5088110;28;20408;-73
2023/04/19 12:16:40;;;;;;;12.47;7.30;;;18.80;99.90;;;;;;5071799;28;20193;-73
2023/04/19 12:19:22;;;;;;;15.93;7.93;;;18.90;99.90;;;;;;5086845;28;20551;-74
2023/04/19 12:21:48;;;;;;;19.30;7.23;;;18.90;99.90;;;;;;5080751;28;20676;-74
2023/04/19 12:24:15;;;;;;;13.03;7.17;;;18.80;99.90;;;;;;5096911;28;20289;-74
2023/04/19 12:26:56;;;;;;;18.00;7.47;;;18.60;99.90;;;;;;5084032;28;20291;-74
2023/04/19 12:29:23;;;;;;;19.50;8.00;;;18.50;99.90;;;;;;5077304;28;20181;-74
2023/04/19 12:31:49;;;;;;;19.57;7.17;;;18.40;99.90;;;;;;5085503;28;20234;-74
2023/04/19 12:34:16;;;;;;;16.20;7.80;;;18.30;99.90;;;;;;5071925;28;20173;-74
2023/04/19 12:36:42;;;;;;;16.07;8.40;;;18.40;99.90;;;;;;5095461;28;20184;-74
2023/04/19 12:39:08;;;;;;;18.83;7.93;;;18.60;99.90;;;;;;5096804;28;20191;-74
2023/04/19 12:41:35;;;;;;;23.50;9.63;;;18.40;99.90;;;;;;5096535;28;20269;-74